AUI225 UKBB-UKLL
Flight info
| Callsign | AUI225 |
|---|---|
| Flight time | N/A |
| Altitude | 30000 |
| Route | KAFEL1D KAFEL P27 LAPVA/K0745F260 P27 GORKU GORKU1J |
| Aircraft | B738/M-V/N |
Departure
| Time | 2026-04-30 13:22 |
|---|---|
| Airport | Boryspil International Airport (UKBB) |
Arrival
| Time | N/A |
|---|---|
| Airport | Lviv International Airport (UKLL) |
| Time | Latitude | Longitude | Altitude | Speed | Heading |
|---|---|---|---|---|---|
| 2026-04-30 12:34 | 50.33483 | 30.88823 | 426 ft | 0 kts | 2° |
| 2026-04-30 13:11 | 50.33484 | 30.88823 | 426 ft | 0 kts | 2° |
| 2026-04-30 13:11 | 50.33495 | 30.88824 | 426 ft | 1 kts | 3° |
| 2026-04-30 13:11 | 50.33510 | 30.88826 | 426 ft | 0 kts | 8° |
| 2026-04-30 13:11 | 50.33511 | 30.88826 | 426 ft | 0 kts | 8° |
| 2026-04-30 13:12 | 50.33525 | 30.88847 | 426 ft | 7 kts | 64° |
| 2026-04-30 13:12 | 50.33528 | 30.88963 | 426 ft | 12 kts | 92° |
| 2026-04-30 13:13 | 50.33519 | 30.89216 | 426 ft | 10 kts | 93° |
| 2026-04-30 13:13 | 50.33516 | 30.89314 | 426 ft | 6 kts | 92° |
| 2026-04-30 13:13 | 50.33512 | 30.89434 | 426 ft | 7 kts | 92° |
| 2026-04-30 13:14 | 50.33510 | 30.89521 | 426 ft | 7 kts | 92° |
| 2026-04-30 13:14 | 50.33508 | 30.89600 | 426 ft | 8 kts | 92° |
| 2026-04-30 13:14 | 50.33500 | 30.89868 | 426 ft | 11 kts | 92° |
| 2026-04-30 13:15 | 50.33496 | 30.89984 | 426 ft | 9 kts | 93° |
| 2026-04-30 13:15 | 50.33459 | 30.90116 | 426 ft | 6 kts | 155° |
| 2026-04-30 13:15 | 50.33405 | 30.90125 | 426 ft | 9 kts | 180° |
| 2026-04-30 13:16 | 50.33326 | 30.90121 | 426 ft | 13 kts | 183° |
| 2026-04-30 13:16 | 50.33224 | 30.90110 | 426 ft | 14 kts | 183° |
| 2026-04-30 13:16 | 50.33130 | 30.90102 | 426 ft | 12 kts | 182° |
| 2026-04-30 13:17 | 50.32965 | 30.90092 | 426 ft | 15 kts | 182° |
| 2026-04-30 13:17 | 50.32836 | 30.90082 | 426 ft | 18 kts | 184° |
| 2026-04-30 13:17 | 50.32625 | 30.90064 | 426 ft | 12 kts | 183° |
| 2026-04-30 13:18 | 50.32554 | 30.90062 | 426 ft | 5 kts | 181° |
| 2026-04-30 13:18 | 50.32488 | 30.90083 | 426 ft | 7 kts | 152° |
| 2026-04-30 13:18 | 50.32445 | 30.90167 | 426 ft | 11 kts | 108° |
| 2026-04-30 13:19 | 50.32458 | 30.90295 | 426 ft | 12 kts | 53° |
| 2026-04-30 13:19 | 50.32518 | 30.90365 | 426 ft | 7 kts | 28° |
| 2026-04-30 13:19 | 50.32549 | 30.90383 | 426 ft | 3 kts | 8° |
| 2026-04-30 13:19 | 50.32556 | 30.90384 | 426 ft | 0 kts | 5° |
| 2026-04-30 13:21 | 50.32581 | 30.90387 | 426 ft | 23 kts | 3° |
| 2026-04-30 13:21 | 50.33046 | 30.90424 | 426 ft | 107 kts | 2° |
| 2026-04-30 13:21 | 50.34024 | 30.90503 | 480 ft | 167 kts | 2° |
| 2026-04-30 13:22 | 50.36414 | 30.90696 | 2141 ft | 171 kts | 4° |
| 2026-04-30 13:22 | 50.37556 | 30.90827 | 2845 ft | 170 kts | 1° |
| 2026-04-30 13:22 | 50.39909 | 30.90975 | 4105 ft | 172 kts | 1° |
| 2026-04-30 13:23 | 50.41093 | 30.91054 | 4768 ft | 170 kts | 1° |
| 2026-04-30 13:23 | 50.43470 | 30.91209 | 5908 ft | 175 kts | 2° |
| 2026-04-30 13:24 | 50.46029 | 30.91386 | 5593 ft | 175 kts | 1° |
| 2026-04-30 13:24 | 50.48417 | 30.91554 | 5697 ft | 174 kts | 2° |
| 2026-04-30 13:25 | 50.50859 | 30.91657 | 5686 ft | 174 kts | 349° |
| 2026-04-30 13:25 | 50.52156 | 30.88903 | 5830 ft | 195 kts | 257° |
| 2026-04-30 13:26 | 50.49292 | 30.83018 | 7070 ft | 262 kts | 257° |
| 2026-04-30 13:26 | 50.50346 | 30.77504 | 7042 ft | 267 kts | 311° |
| 2026-04-30 13:27 | 50.52193 | 30.72542 | 7070 ft | 267 kts | 290° |
| 2026-04-30 13:28 | 50.52708 | 30.64000 | 7075 ft | 272 kts | 245° |
| 2026-04-30 13:28 | 50.50785 | 30.58825 | 7070 ft | 273 kts | 243° |
| 2026-04-30 13:28 | 50.49876 | 30.56202 | 7070 ft | 273 kts | 243° |
| 2026-04-30 13:29 | 50.48058 | 30.50935 | 7069 ft | 273 kts | 244° |
| 2026-04-30 13:29 | 50.46260 | 30.45679 | 7200 ft | 288 kts | 243° |
| 2026-04-30 13:30 | 50.43437 | 30.37452 | 10022 ft | 289 kts | 243° |
| 2026-04-30 13:31 | 50.41537 | 30.31710 | 11263 ft | 309 kts | 249° |
| 2026-04-30 13:31 | 50.41948 | 30.21745 | 13566 ft | 318 kts | 289° |
| 2026-04-30 13:32 | 50.43309 | 30.15053 | 15019 ft | 325 kts | 288° |
| 2026-04-30 13:32 | 50.44688 | 30.08264 | 16428 ft | 331 kts | 288° |
| 2026-04-30 13:33 | 50.46079 | 30.01417 | 17749 ft | 337 kts | 288° |
| 2026-04-30 13:33 | 50.47514 | 29.94330 | 19027 ft | 342 kts | 289° |
| 2026-04-30 13:34 | 50.48238 | 29.90747 | 19640 ft | 345 kts | 289° |